createdAt,value
2019-02-07T00:02:21.904Z,1003.40
2019-02-07T00:07:21.900Z,1003.27
2019-02-07T00:12:21.932Z,1003.23
2019-02-07T00:17:21.852Z,1003.16
2019-02-07T00:22:21.875Z,1003.00
2019-02-07T00:27:21.842Z,1002.93
2019-02-07T00:32:22.063Z,1002.87
2019-02-07T00:37:21.904Z,1002.78
2019-02-07T00:42:22.059Z,1002.61
2019-02-07T00:47:22.218Z,1002.50
2019-02-07T00:52:22.109Z,1002.39
2019-02-07T00:57:22.083Z,1002.27
2019-02-07T01:02:22.016Z,1002.17
2019-02-07T01:07:21.897Z,1002.12
2019-02-07T01:12:22.065Z,1001.98
2019-02-07T01:17:21.967Z,1001.81
2019-02-07T01:22:21.903Z,1001.76
2019-02-07T01:27:21.948Z,1001.61
2019-02-07T01:32:22.008Z,1001.55
2019-02-07T01:37:21.912Z,1001.51
2019-02-07T01:42:22.054Z,1001.40
2019-02-07T01:47:22.188Z,1001.45
2019-02-07T01:52:22.025Z,1001.43
2019-02-07T01:57:21.946Z,1001.36
2019-02-07T02:02:22.095Z,1001.32
2019-02-07T02:07:22.029Z,1001.19
2019-02-07T02:12:22.077Z,1001.17
2019-02-07T02:17:22.005Z,1001.09
2019-02-07T02:22:22.359Z,1000.90
2019-02-07T02:27:22.003Z,1000.84
2019-02-07T02:32:22.025Z,1000.64
2019-02-07T02:37:22.145Z,1000.57
2019-02-07T02:42:22.185Z,1000.52
2019-02-07T02:47:22.002Z,1000.55
2019-02-07T02:52:22.046Z,1000.31
2019-02-07T02:57:22.067Z,1000.17
2019-02-07T03:02:22.041Z,1000.07
2019-02-07T03:07:22.144Z,999.96
2019-02-07T03:12:22.088Z,999.79
2019-02-07T03:17:22.003Z,999.74
2019-02-07T03:22:22.073Z,999.59
2019-02-07T03:27:22.101Z,999.55
2019-02-07T03:32:22.229Z,999.52
2019-02-07T03:37:22.061Z,999.44
2019-02-07T03:42:22.105Z,999.31
2019-02-07T03:47:22.135Z,999.31
2019-02-07T03:52:22.090Z,999.17
2019-02-07T03:57:22.299Z,999.13
2019-02-07T04:02:22.123Z,999.00
2019-02-07T04:07:22.080Z,998.97
2019-02-07T04:12:22.199Z,999.03
2019-02-07T04:17:22.351Z,998.94
2019-02-07T04:22:22.085Z,998.93
2019-02-07T04:27:22.221Z,998.82
2019-02-07T04:32:22.173Z,998.67
2019-02-07T04:37:22.168Z,998.62
2019-02-07T04:42:22.136Z,998.43
2019-02-07T04:47:22.138Z,998.49
2019-02-07T04:52:22.185Z,998.40
2019-02-07T04:57:22.141Z,998.39
2019-02-07T05:02:22.161Z,998.33
2019-02-07T05:07:22.200Z,998.22
2019-02-07T05:12:22.352Z,998.07
2019-02-07T05:17:22.379Z,998.01
2019-02-07T05:22:22.286Z,997.92
2019-02-07T05:27:22.254Z,997.90
2019-02-07T05:32:22.319Z,997.84
2019-02-07T05:37:22.200Z,997.80
2019-02-07T05:42:22.823Z,997.66
2019-02-07T05:47:22.288Z,997.63
2019-02-07T05:52:22.230Z,997.48
2019-02-07T05:57:22.432Z,997.26
2019-02-07T06:02:22.358Z,997.35
2019-02-07T06:07:22.199Z,997.27
2019-02-07T06:12:22.437Z,997.17
2019-02-07T06:17:22.315Z,997.06
2019-02-07T06:22:22.199Z,997.09
2019-02-07T06:27:22.249Z,997.03
2019-02-07T06:32:22.271Z,997.12
2019-02-07T06:37:22.639Z,997.06
2019-02-07T06:42:22.388Z,997.06
2019-02-07T06:47:22.383Z,996.97
2019-02-07T06:52:22.408Z,996.98
2019-02-07T06:57:22.261Z,996.90
2019-02-07T07:02:22.604Z,996.93
2019-02-07T07:07:22.247Z,996.91
2019-02-07T07:12:22.301Z,996.99
2019-02-07T07:17:25.812Z,996.96
2019-02-07T07:22:22.204Z,997.02
2019-02-07T07:27:22.362Z,997.07
2019-02-07T07:32:22.572Z,997.12
2019-02-07T07:37:22.338Z,997.18
2019-02-07T07:42:22.253Z,997.18
2019-02-07T07:47:22.276Z,997.22
2019-02-07T07:52:22.326Z,997.34
2019-02-07T07:57:22.273Z,997.37
2019-02-07T08:02:22.324Z,997.37
2019-02-07T08:07:22.294Z,997.40
2019-02-07T08:12:22.623Z,997.49
2019-02-07T08:17:22.324Z,997.53
2019-02-07T08:22:22.435Z,997.65
2019-02-07T08:27:22.381Z,997.81
2019-02-07T08:32:22.337Z,997.91
2019-02-07T08:37:22.338Z,998.11
2019-02-07T08:42:22.369Z,998.35
2019-02-07T08:47:22.451Z,998.37
2019-02-07T08:52:22.360Z,998.32
2019-02-07T08:57:22.580Z,998.42
2019-02-07T09:02:22.429Z,998.43
2019-02-07T09:07:22.547Z,998.52
2019-02-07T09:12:22.803Z,998.47
2019-02-07T09:17:22.424Z,998.38
2019-02-07T09:22:23.970Z,998.45
2019-02-07T09:27:22.494Z,998.49
2019-02-07T09:32:22.436Z,998.53
2019-02-07T09:37:22.354Z,998.68
2019-02-07T09:42:22.375Z,998.51
2019-02-07T09:47:22.439Z,998.56
2019-02-07T09:52:22.790Z,998.58
2019-02-07T09:57:22.381Z,998.61
2019-02-07T10:02:22.518Z,998.71
2019-02-07T10:07:22.449Z,998.68
2019-02-07T10:12:22.511Z,998.72
2019-02-07T10:17:22.430Z,998.76
2019-02-07T10:22:22.383Z,998.72
2019-02-07T10:27:22.390Z,998.69
2019-02-07T10:32:22.443Z,998.76
2019-02-07T10:37:22.455Z,998.75
2019-02-07T10:42:22.427Z,998.81
2019-02-07T10:47:22.666Z,998.68
2019-02-07T10:52:22.551Z,998.71
2019-02-07T10:57:22.517Z,998.82
2019-02-07T11:02:22.592Z,998.75
2019-02-07T11:07:22.476Z,998.70
2019-02-07T11:12:22.514Z,998.70
2019-02-07T11:17:22.431Z,998.55
2019-02-07T11:22:23.148Z,998.54
2019-02-07T11:27:22.505Z,998.53
2019-02-07T11:32:22.444Z,998.56
2019-02-07T11:37:22.469Z,998.44
2019-02-07T11:42:22.504Z,998.40
2019-02-07T11:47:22.560Z,998.41
2019-02-07T11:52:22.523Z,998.45
2019-02-07T11:57:22.597Z,998.43
2019-02-07T12:02:22.675Z,998.32
2019-02-07T12:07:22.602Z,998.32
2019-02-07T12:12:22.513Z,998.33
2019-02-07T12:17:23.079Z,998.35
2019-02-07T12:22:22.512Z,998.27
2019-02-07T12:27:22.555Z,998.24
2019-02-07T12:32:22.544Z,998.35
2019-02-07T12:37:22.604Z,998.32
2019-02-07T12:42:22.537Z,998.24
2019-02-07T12:47:22.563Z,998.15
2019-02-07T12:52:22.595Z,998.25
2019-02-07T12:57:22.621Z,998.27
2019-02-07T13:02:22.688Z,998.28
2019-02-07T13:07:22.624Z,998.11
2019-02-07T13:12:22.563Z,998.10
2019-02-07T13:17:22.559Z,998.07
2019-02-07T13:22:22.623Z,998.09
2019-02-07T13:27:22.584Z,998.08
2019-02-07T13:32:22.818Z,998.12
2019-02-07T13:37:22.857Z,998.09
2019-02-07T13:42:22.978Z,998.11
2019-02-07T13:47:22.717Z,998.18
2019-02-07T13:52:22.909Z,998.20
2019-02-07T13:57:22.741Z,998.18
2019-02-07T14:02:22.613Z,998.32
2019-02-07T14:07:22.594Z,998.33
2019-02-07T14:12:22.658Z,998.37
2019-02-07T14:17:22.614Z,998.43
2019-02-07T14:22:22.564Z,998.43
2019-02-07T14:27:22.656Z,998.42
2019-02-07T14:32:22.564Z,998.36
2019-02-07T14:37:22.646Z,998.44
2019-02-07T14:42:22.782Z,998.62
2019-02-07T14:47:22.715Z,998.76
2019-02-07T14:52:22.820Z,998.81
2019-02-07T14:57:22.642Z,998.96
2019-02-07T15:02:22.686Z,998.91
2019-02-07T15:07:23.252Z,998.85
2019-02-07T15:12:22.872Z,998.90
2019-02-07T15:17:22.712Z,998.93
2019-02-07T15:22:22.625Z,998.78
2019-02-07T15:27:23.117Z,998.73
2019-02-07T15:32:22.726Z,998.76
2019-02-07T15:37:22.858Z,998.84
2019-02-07T15:42:22.773Z,998.88
2019-02-07T15:47:22.709Z,998.96
2019-02-07T15:52:22.746Z,998.96
2019-02-07T15:57:23.011Z,998.94
2019-02-07T16:02:22.944Z,998.95
2019-02-07T16:07:22.742Z,998.95
2019-02-07T16:12:22.706Z,998.98
2019-02-07T16:17:22.719Z,998.99
2019-02-07T16:22:22.767Z,999.15
2019-02-07T16:27:22.814Z,999.18
2019-02-07T16:32:22.810Z,999.32
2019-02-07T16:37:22.765Z,999.20
2019-02-07T16:42:22.810Z,999.13
2019-02-07T16:47:22.725Z,999.20
2019-02-07T16:52:22.758Z,999.20
2019-02-07T16:57:22.895Z,999.18
2019-02-07T17:02:22.712Z,999.29
2019-02-07T17:07:22.783Z,999.29
2019-02-07T17:12:22.790Z,999.39
2019-02-07T17:17:22.832Z,999.55
2019-02-07T17:22:23.411Z,999.65
2019-02-07T17:27:22.929Z,999.90
2019-02-07T17:32:22.813Z,1000.05
2019-02-07T17:37:22.883Z,1000.07
2019-02-07T17:42:22.796Z,1000.02
2019-02-07T17:47:22.814Z,1000.13
2019-02-07T17:52:22.989Z,1000.21
2019-02-07T17:57:22.882Z,1000.33
2019-02-07T18:02:23.133Z,1000.30
2019-02-07T18:07:22.854Z,1000.32
2019-02-07T18:12:22.998Z,1000.27
2019-02-07T18:17:22.867Z,1000.37
2019-02-07T18:22:22.959Z,1000.44
2019-02-07T18:27:22.992Z,1000.47
2019-02-07T18:32:23.196Z,1000.50
2019-02-07T18:37:23.120Z,1000.48
2019-02-07T18:42:22.773Z,1000.57
2019-02-07T18:47:22.820Z,1000.63
2019-02-07T18:52:22.987Z,1000.68
2019-02-07T18:57:22.925Z,1000.68
2019-02-07T19:02:22.841Z,1000.77
2019-02-07T19:07:23.038Z,1000.83
2019-02-07T19:12:22.790Z,1000.73
2019-02-07T19:17:23.096Z,1000.72
2019-02-07T19:22:22.996Z,1000.86
2019-02-07T19:27:22.825Z,1000.85
2019-02-07T19:32:22.884Z,1000.81
2019-02-07T19:37:22.971Z,1000.97
2019-02-07T19:42:22.838Z,1000.99
2019-02-07T19:47:22.959Z,1001.06
2019-02-07T19:52:23.212Z,1001.10
2019-02-07T19:57:22.938Z,1001.11
2019-02-07T20:02:23.090Z,1001.13
2019-02-07T20:07:23.525Z,1001.17
2019-02-07T20:12:23.243Z,1001.28
2019-02-07T20:17:23.103Z,1001.29
2019-02-07T20:22:22.862Z,1001.28
2019-02-07T20:27:22.935Z,1001.39
2019-02-07T20:32:23.007Z,1001.32
2019-02-07T20:37:22.994Z,1001.38
2019-02-07T20:42:22.934Z,1001.41
2019-02-07T20:47:22.866Z,1001.43
2019-02-07T20:52:27.261Z,1001.47
2019-02-07T20:57:22.851Z,1001.57
2019-02-07T21:02:23.392Z,1001.48
2019-02-07T21:07:22.921Z,1001.48
2019-02-07T21:12:22.958Z,1001.57
2019-02-07T21:17:22.986Z,1001.71
2019-02-07T21:22:23.009Z,1001.72
2019-02-07T21:27:23.037Z,1001.77
2019-02-07T21:32:23.100Z,1001.84
2019-02-07T21:37:23.096Z,1001.87
2019-02-07T21:42:22.964Z,1001.96
2019-02-07T21:47:23.601Z,1002.02
2019-02-07T21:52:22.907Z,1002.01
2019-02-07T21:57:23.316Z,1002.10
2019-02-07T22:02:22.977Z,1002.07
2019-02-07T22:07:22.972Z,1002.27
2019-02-07T22:12:22.975Z,1002.27
2019-02-07T22:17:22.980Z,1002.34
2019-02-07T22:22:23.027Z,1002.37
2019-02-07T22:27:23.027Z,1002.45
2019-02-07T22:32:22.979Z,1002.37
2019-02-07T22:37:22.988Z,1002.29
2019-02-07T22:42:23.051Z,1002.31
2019-02-07T22:47:23.223Z,1002.32
2019-02-07T22:52:23.244Z,1002.37
2019-02-07T22:57:23.068Z,1002.43
2019-02-07T23:02:23.231Z,1002.35
2019-02-07T23:07:23.024Z,1002.34
2019-02-07T23:12:23.094Z,1002.37
2019-02-07T23:17:23.103Z,1002.38
2019-02-07T23:22:23.163Z,1002.41
2019-02-07T23:27:23.073Z,1002.43
2019-02-07T23:32:23.209Z,1002.49
2019-02-07T23:37:23.133Z,1002.41
2019-02-07T23:42:23.116Z,1002.40
2019-02-07T23:47:23.161Z,1002.33
2019-02-07T23:52:23.151Z,1002.51
2019-02-07T23:57:23.169Z,1002.48
